Time;durP1;ratioP1;P1;durP2;ratioP2;P2;SDS_P1;SDS_P2;PMS_P1;PMS_P2;Temp;Humidity;BMP_temperature;BMP_pressure;BME280_temperature;BME280_humidity;BME280_pressure;Samples;Min_cycle;Max_cycle;Signal;HPM_P1;HPM_P2
2022/07/04 00:41:51;;;;;;;1999.90;999.90;;;;;;;;;;6244215;23;20639;-69
2022/07/04 00:44:36;;;;;;;1999.90;999.90;;;;;;;;;;6243089;23;20168;-69
2022/07/04 00:47:21;;;;;;;1999.90;999.90;;;;;;;;;;6242788;23;20216;-69
2022/07/04 00:50:06;;;;;;;1999.90;999.90;;;;;;;;;;6256174;22;20658;-69
2022/07/04 00:52:52;;;;;;;1999.90;999.90;;;;;;;;;;6274588;22;20492;-69
2022/07/04 00:55:38;;;;;;;1999.90;999.90;;;;;;;;;;6275713;22;20168;-69
2022/07/04 00:58:25;;;;;;;1999.90;999.90;;;;;;;;;;6274400;22;20196;-69
2022/07/04 01:01:09;;;;;;;1999.90;999.90;;;;;;;;;;6275267;22;20200;-69
2022/07/04 01:03:54;;;;;;;1999.90;999.90;;;;;;;;;;6275349;22;20198;-69
2022/07/04 01:06:39;;;;;;;1999.90;999.90;;;;;;;;;;6274747;22;20211;-69
2022/07/04 01:09:24;;;;;;;1999.90;999.90;;;;;;;;;;6272310;22;20518;-70
2022/07/04 01:12:09;;;;;;;1999.90;999.90;;;;;;;;;;6274743;22;20575;-70
2022/07/04 01:14:55;;;;;;;1999.90;999.90;;;;;;;;;;6274268;22;20721;-69
2022/07/04 01:17:41;;;;;;;1999.90;999.90;;;;;;;;;;6274288;22;20462;-70
2022/07/04 01:20:27;;;;;;;1999.90;999.90;;;;;;;;;;6274690;22;20211;-69
2022/07/04 01:23:12;;;;;;;1999.90;999.90;;;;;;;;;;6275257;22;20169;-69
2022/07/04 01:25:57;;;;;;;1999.90;999.90;;;;;;;;;;6274188;22;20303;-70
2022/07/04 01:28:44;;;;;;;1999.90;999.90;;;;;;;;;;6274117;22;20200;-69
2022/07/04 01:31:29;;;;;;;1999.90;999.90;;;;;;;;;;6274485;22;20239;-69
2022/07/04 01:34:14;;;;;;;1999.90;999.90;;;;;;;;;;6274600;22;20164;-69
2022/07/04 01:37:01;;;;;;;1999.90;999.90;;;;;;;;;;6274425;22;20168;-69
2022/07/04 01:39:45;;;;;;;1999.90;999.90;;;;;;;;;;6273896;22;20208;-70
2022/07/04 01:42:30;;;;;;;1999.90;999.90;;;;;;;;;;6274660;22;20210;-69
2022/07/04 01:45:16;;;;;;;1999.90;999.90;;;;;;;;;;6274271;22;20172;-69
2022/07/04 01:48:01;;;;;;;1999.90;999.90;;;;;;;;;;6273754;22;20259;-69
2022/07/04 01:50:45;;;;;;;1999.90;999.90;;;;;;;;;;6274474;22;20266;-69
2022/07/04 01:53:36;;;;;;;1999.90;999.90;;;;;;;;;;6274367;22;20215;-69
2022/07/04 01:56:20;;;;;;;1999.90;999.90;;;;;;;;;;6272672;22;20897;-69
2022/07/04 01:59:05;;;;;;;1999.90;999.90;;;;;;;;;;6274018;22;20211;-69
2022/07/04 02:01:49;;;;;;;1999.90;999.90;;;;;;;;;;6274080;22;20601;-69
2022/07/04 02:04:34;;;;;;;1999.90;999.90;;;;;;;;;;6273821;22;20623;-69
2022/07/04 02:07:19;;;;;;;1999.90;999.90;;;;;;;;;;6273953;22;20262;-69
2022/07/04 02:10:06;;;;;;;1999.90;999.90;;;;;;;;;;6274237;22;20200;-69
2022/07/04 02:13:03;;;;;;;1999.90;999.90;;;;;;;;;;6274358;22;20163;-69
2022/07/04 02:15:48;;;;;;;1999.90;999.90;;;;;;;;;;6274200;22;20219;-69
2022/07/04 02:18:33;;;;;;;1999.90;999.90;;;;;;;;;;6273534;22;20223;-69
2022/07/04 02:21:18;;;;;;;1999.90;999.90;;;;;;;;;;6274095;22;20251;-69
2022/07/04 02:24:03;;;;;;;1999.90;999.90;;;;;;;;;;6274150;22;20499;-69
2022/07/04 02:26:50;;;;;;;1999.90;999.90;;;;;;;;;;6273957;22;20246;-70
2022/07/04 02:29:35;;;;;;;1999.90;999.90;;;;;;;;;;6273794;22;20199;-69
2022/07/04 02:32:19;;;;;;;1999.90;999.90;;;;;;;;;;6274262;22;20203;-69
2022/07/04 02:35:05;;;;;;;1999.90;999.90;;;;;;;;;;6274263;22;20175;-69
2022/07/04 02:37:50;;;;;;;1999.90;999.90;;;;;;;;;;6273674;22;20164;-69
2022/07/04 02:40:35;;;;;;;1999.90;999.90;;;;;;;;;;6274075;22;20231;-69
2022/07/04 02:43:21;;;;;;;1999.90;999.90;;;;;;;;;;6272910;22;20371;-69
2022/07/04 02:46:06;;;;;;;1999.90;999.90;;;;;;;;;;6273781;22;20180;-70
2022/07/04 02:48:51;;;;;;;1999.90;999.90;;;;;;;;;;6273914;22;20168;-69
2022/07/04 02:51:36;;;;;;;1999.90;999.90;;;;;;;;;;6274148;22;20642;-69
2022/07/04 02:54:21;;;;;;;1999.90;999.90;;;;;;;;;;6273840;22;20441;-69
2022/07/04 02:57:06;;;;;;;1999.90;999.90;;;;;;;;;;6273820;22;20168;-70
2022/07/04 02:59:52;;;;;;;1999.90;999.90;;;;;;;;;;6273738;22;20207;-69
2022/07/04 03:02:37;;;;;;;1999.90;999.90;;;;;;;;;;6274098;22;20168;-69
2022/07/04 03:05:22;;;;;;;1999.90;999.90;;;;;;;;;;6273536;22;20203;-69
2022/07/04 03:08:07;;;;;;;1999.90;999.90;;;;;;;;;;6273700;22;20629;-69
2022/07/04 03:10:52;;;;;;;1999.90;999.90;;;;;;;;;;6273962;22;20270;-70
2022/07/04 03:13:37;;;;;;;1999.90;999.90;;;;;;;;;;6274744;22;20165;-69
2022/07/04 03:16:24;;;;;;;1999.90;999.90;;;;;;;;;;6272903;22;20376;-69
2022/07/04 03:19:10;;;;;;;1999.90;999.90;;;;;;;;;;6274621;22;20755;-69
2022/07/04 03:21:55;;;;;;;1999.90;999.90;;;;;;;;;;6274372;22;20667;-69
2022/07/04 03:24:40;;;;;;;1999.90;999.90;;;;;;;;;;6274746;22;20215;-69
2022/07/04 03:27:24;;;;;;;1999.90;999.90;;;;;;;;;;6274628;22;20254;-69
2022/07/04 03:30:11;;;;;;;1999.90;999.90;;;;;;;;;;6273364;22;20478;-70
2022/07/04 03:32:58;;;;;;;1999.90;999.90;;;;;;;;;;6274922;22;20212;-69
2022/07/04 03:35:43;;;;;;;1999.90;999.90;;;;;;;;;;6276462;22;20164;-69
2022/07/04 03:38:27;;;;;;;1999.90;999.90;;;;;;;;;;6276028;22;20168;-69
2022/07/04 03:41:13;;;;;;;1999.90;999.90;;;;;;;;;;6275933;22;20322;-69
2022/07/04 03:43:58;;;;;;;1999.90;999.90;;;;;;;;;;6275971;22;20168;-69
2022/07/04 03:46:42;;;;;;;1999.90;999.90;;;;;;;;;;6276231;22;20168;-69
2022/07/04 03:49:29;;;;;;;1999.90;999.90;;;;;;;;;;6276246;22;20219;-68
2022/07/04 03:52:14;;;;;;;1999.90;999.90;;;;;;;;;;6276288;22;20171;-70
2022/07/04 03:54:59;;;;;;;1999.90;999.90;;;;;;;;;;6276329;22;20490;-69
2022/07/04 03:57:44;;;;;;;1999.90;999.90;;;;;;;;;;6275950;22;20184;-69
2022/07/04 04:00:29;;;;;;;1999.90;999.90;;;;;;;;;;6275747;22;20251;-69
2022/07/04 04:06:15;;;;;;;1999.90;999.90;;;;;;;;;;6275707;22;20203;-69
2022/07/04 04:09:00;;;;;;;1999.90;999.90;;;;;;;;;;6275614;22;20674;-69
2022/07/04 04:11:46;;;;;;;1999.90;999.90;;;;;;;;;;6275911;22;20517;-69
2022/07/04 04:14:31;;;;;;;1999.90;999.90;;;;;;;;;;6276007;22;20164;-69
2022/07/04 04:17:16;;;;;;;1999.90;999.90;;;;;;;;;;6274104;22;20248;-69
2022/07/04 04:20:01;;;;;;;1999.90;999.90;;;;;;;;;;6272726;22;20485;-69
2022/07/04 04:22:47;;;;;;;1999.90;999.90;;;;;;;;;;6274759;22;20623;-70
2022/07/04 04:25:32;;;;;;;1999.90;999.90;;;;;;;;;;6275092;22;20215;-69
2022/07/04 04:28:17;;;;;;;1999.90;999.90;;;;;;;;;;6274381;22;20287;-69
2022/07/04 04:31:02;;;;;;;1999.90;999.90;;;;;;;;;;6274770;22;20196;-69
2022/07/04 04:33:47;;;;;;;1999.90;999.90;;;;;;;;;;6274690;22;20168;-69
2022/07/04 04:36:32;;;;;;;1999.90;999.90;;;;;;;;;;6274678;22;20179;-69
2022/07/04 04:39:18;;;;;;;1999.90;999.90;;;;;;;;;;6274413;22;20167;-69
2022/07/04 04:42:03;;;;;;;1999.90;999.90;;;;;;;;;;6275399;22;20163;-69
2022/07/04 04:44:48;;;;;;;1999.90;999.90;;;;;;;;;;6275002;22;20250;-68
2022/07/04 04:47:34;;;;;;;1999.90;999.90;;;;;;;;;;6275749;22;20168;-67
2022/07/04 04:50:19;;;;;;;1999.90;999.90;;;;;;;;;;6274268;22;20270;-67
2022/07/04 04:53:04;;;;;;;1999.90;999.90;;;;;;;;;;6275365;22;20187;-68
2022/07/04 04:55:50;;;;;;;1999.90;999.90;;;;;;;;;;6275728;22;20176;-68
2022/07/04 04:58:35;;;;;;;1999.90;999.90;;;;;;;;;;6275396;22;20183;-68
2022/07/04 05:01:20;;;;;;;1999.90;999.90;;;;;;;;;;6274233;22;20204;-68
2022/07/04 05:04:05;;;;;;;1999.90;999.90;;;;;;;;;;6275595;22;20231;-68
2022/07/04 05:06:50;;;;;;;1999.90;999.90;;;;;;;;;;6274963;22;20538;-70
2022/07/04 05:09:35;;;;;;;1999.90;999.90;;;;;;;;;;6274731;22;20576;-68
2022/07/04 05:12:21;;;;;;;1999.90;999.90;;;;;;;;;;6275563;22;20169;-68
2022/07/04 05:15:06;;;;;;;1999.90;999.90;;;;;;;;;;6275604;22;20215;-68
2022/07/04 05:17:51;;;;;;;1999.90;999.90;;;;;;;;;;6275248;22;20168;-68
2022/07/04 05:20:36;;;;;;;1999.90;999.90;;;;;;;;;;6274866;22;20244;-68
2022/07/04 05:23:21;;;;;;;1999.90;999.90;;;;;;;;;;6275807;22;20183;-68
2022/07/04 05:26:06;;;;;;;1999.90;999.90;;;;;;;;;;6275490;22;20168;-68
2022/07/04 05:28:52;;;;;;;1999.90;999.90;;;;;;;;;;6274649;22;20167;-68
2022/07/04 05:31:37;;;;;;;1999.90;999.90;;;;;;;;;;6273912;22;20180;-68
2022/07/04 05:34:23;;;;;;;1999.90;999.90;;;;;;;;;;6275324;22;20164;-68
2022/07/04 05:37:07;;;;;;;1999.90;999.90;;;;;;;;;;6273570;22;20615;-68
2022/07/04 05:39:52;;;;;;;1999.90;999.90;;;;;;;;;;6273435;22;20227;-68
2022/07/04 05:42:37;;;;;;;1999.90;999.90;;;;;;;;;;6273949;22;20164;-68
2022/07/04 05:45:24;;;;;;;1999.90;999.90;;;;;;;;;;6274013;22;20504;-69
2022/07/04 05:48:09;;;;;;;1999.90;999.90;;;;;;;;;;6273739;22;20504;-68
2022/07/04 05:50:54;;;;;;;1999.90;999.90;;;;;;;;;;6273857;22;20197;-68
2022/07/04 05:53:39;;;;;;;1999.90;999.90;;;;;;;;;;6273894;22;20171;-68
2022/07/04 05:56:24;;;;;;;1999.90;999.90;;;;;;;;;;6272380;22;20381;-68
2022/07/04 05:59:12;;;;;;;1999.90;999.90;;;;;;;;;;6272707;22;20634;-69
2022/07/04 06:01:58;;;;;;;1999.90;999.90;;;;;;;;;;6273802;22;20179;-69
2022/07/04 06:04:44;;;;;;;1999.90;999.90;;;;;;;;;;6273840;22;20272;-69
2022/07/04 06:07:28;;;;;;;1999.90;999.90;;;;;;;;;;6273819;22;20171;-69
2022/07/04 06:10:13;;;;;;;1999.90;999.90;;;;;;;;;;6273762;22;20199;-69
2022/07/04 06:12:58;;;;;;;1999.90;999.90;;;;;;;;;;6273710;22;20245;-69
2022/07/04 06:15:43;;;;;;;1999.90;999.90;;;;;;;;;;6273954;22;20167;-67
2022/07/04 06:18:29;;;;;;;1999.90;999.90;;;;;;;;;;6273446;22;20283;-68
2022/07/04 06:21:14;;;;;;;1999.90;999.90;;;;;;;;;;6273696;22;20204;-67
2022/07/04 06:23:59;;;;;;;1999.90;999.90;;;;;;;;;;6274294;22;20188;-68
2022/07/04 06:26:44;;;;;;;1999.90;999.90;;;;;;;;;;6274364;22;20167;-68
2022/07/04 06:29:29;;;;;;;1999.90;999.90;;;;;;;;;;6273326;22;20204;-68
2022/07/04 06:32:14;;;;;;;1999.90;999.90;;;;;;;;;;6273762;22;20165;-68
2022/07/04 06:38:03;;;;;;;1999.90;999.90;;;;;;;;;;6273156;22;20215;-69
2022/07/04 06:40:49;;;;;;;1999.90;999.90;;;;;;;;;;6273520;22;20213;-68
2022/07/04 06:43:34;;;;;;;1999.90;999.90;;;;;;;;;;6273224;22;20769;-69
2022/07/04 06:46:19;;;;;;;1999.90;999.90;;;;;;;;;;6275184;22;20501;-68
2022/07/04 06:49:04;;;;;;;1999.90;999.90;;;;;;;;;;6273374;22;20204;-69
2022/07/04 06:51:51;;;;;;;1999.90;999.90;;;;;;;;;;6274205;22;20247;-69
2022/07/04 06:54:35;;;;;;;1999.90;999.90;;;;;;;;;;6272783;22;20215;-69
2022/07/04 06:57:20;;;;;;;1999.90;999.90;;;;;;;;;;6273121;22;20164;-69
2022/07/04 07:00:06;;;;;;;1999.90;999.90;;;;;;;;;;6273199;22;20207;-69
2022/07/04 07:02:51;;;;;;;1999.90;999.90;;;;;;;;;;6273508;22;20164;-69
2022/07/04 07:05:37;;;;;;;1999.90;999.90;;;;;;;;;;6273658;22;20630;-70
2022/07/04 07:08:23;;;;;;;1999.90;999.90;;;;;;;;;;6273535;22;20239;-70
2022/07/04 07:11:16;;;;;;;1999.90;999.90;;;;;;;;;;6275524;22;20208;-69
2022/07/04 07:14:01;;;;;;;1999.90;999.90;;;;;;;;;;6275020;22;20495;-68
2022/07/04 07:16:46;;;;;;;1999.90;999.90;;;;;;;;;;6275336;22;20248;-68
2022/07/04 07:19:31;;;;;;;1999.90;999.90;;;;;;;;;;6275080;22;20288;-69
2022/07/04 07:22:16;;;;;;;1999.90;999.90;;;;;;;;;;6275361;22;20326;-68
2022/07/04 07:25:02;;;;;;;1999.90;999.90;;;;;;;;;;6275542;22;20349;-69
2022/07/04 07:27:48;;;;;;;1999.90;999.90;;;;;;;;;;6275326;22;20199;-68
2022/07/04 07:30:33;;;;;;;1999.90;999.90;;;;;;;;;;6274640;22;20372;-69
2022/07/04 07:33:18;;;;;;;1999.90;999.90;;;;;;;;;;6275767;22;20244;-69
2022/07/04 07:36:03;;;;;;;1999.90;999.90;;;;;;;;;;6275370;22;20164;-69
2022/07/04 07:38:48;;;;;;;1999.90;999.90;;;;;;;;;;6275024;22;20611;-69
2022/07/04 07:41:35;;;;;;;1999.90;999.90;;;;;;;;;;6274625;22;20215;-69
2022/07/04 07:44:20;;;;;;;1999.90;999.90;;;;;;;;;;6276218;22;20237;-69
2022/07/04 07:47:05;;;;;;;1999.90;999.90;;;;;;;;;;6276129;22;20163;-69
2022/07/04 07:49:49;;;;;;;1999.90;999.90;;;;;;;;;;6275742;22;20204;-70
2022/07/04 07:52:34;;;;;;;1999.90;999.90;;;;;;;;;;6274369;22;20188;-68
2022/07/04 07:55:20;;;;;;;1999.90;999.90;;;;;;;;;;6275683;22;20685;-69
2022/07/04 07:58:06;;;;;;;1999.90;999.90;;;;;;;;;;6276028;22;20182;-70
2022/07/04 08:00:51;;;;;;;1999.90;999.90;;;;;;;;;;6275649;22;20219;-70
2022/07/04 08:06:39;;;;;;;1999.90;999.90;;;;;;;;;;6276239;22;20195;-68
2022/07/04 08:09:24;;;;;;;1999.90;999.90;;;;;;;;;;6276180;22;20618;-68
2022/07/04 08:12:09;;;;;;;1999.90;999.90;;;;;;;;;;6283013;22;20203;-67
2022/07/04 08:14:56;;;;;;;1999.90;999.90;;;;;;;;;;6282012;22;20375;-68
2022/07/04 08:17:41;;;;;;;1999.90;999.90;;;;;;;;;;6278715;22;20224;-67
2022/07/04 08:20:25;;;;;;;1999.90;999.90;;;;;;;;;;6275114;22;20282;-69
2022/07/04 08:23:11;;;;;;;1999.90;999.90;;;;;;;;;;6276157;22;20171;-67
2022/07/04 08:25:56;;;;;;;1999.90;999.90;;;;;;;;;;6275549;22;20249;-71
2022/07/04 08:28:41;;;;;;;1999.90;999.90;;;;;;;;;;6275719;22;20168;-70
2022/07/04 08:31:27;;;;;;;1999.90;999.90;;;;;;;;;;6276048;22;20203;-70
2022/07/04 08:34:12;;;;;;;1999.90;999.90;;;;;;;;;;6275734;22;20171;-70
2022/07/04 08:36:57;;;;;;;1999.90;999.90;;;;;;;;;;6276002;22;20324;-71
2022/07/04 08:39:42;;;;;;;1999.90;999.90;;;;;;;;;;6275521;22;20203;-69
2022/07/04 08:42:29;;;;;;;1999.90;999.90;;;;;;;;;;6275456;22;20555;-69
2022/07/04 08:45:15;;;;;;;1999.90;999.90;;;;;;;;;;6275671;22;20238;-69
2022/07/04 08:48:03;;;;;;;1999.90;999.90;;;;;;;;;;6275174;22;20168;-69
2022/07/04 08:50:50;;;;;;;1999.90;999.90;;;;;;;;;;6275818;22;20200;-69
2022/07/04 08:53:36;;;;;;;1999.90;999.90;;;;;;;;;;6274883;22;20167;-70
2022/07/04 08:59:39;;;;;;;1999.90;999.90;;;;;;;;;;6181477;23;20206;-70
2022/07/04 09:02:25;;;;;;;1999.90;999.90;;;;;;;;;;6181975;23;20679;-69
2022/07/04 09:05:11;;;;;;;1999.90;999.90;;;;;;;;;;6258687;22;20307;-69
2022/07/04 09:07:56;;;;;;;1999.90;999.90;;;;;;;;;;6275302;22;20168;-69
2022/07/04 09:10:41;;;;;;;1999.90;999.90;;;;;;;;;;6275585;22;20199;-70
2022/07/04 09:13:26;;;;;;;1999.90;999.90;;;;;;;;;;6276076;22;20163;-70
2022/07/04 09:16:11;;;;;;;1999.90;999.90;;;;;;;;;;6275499;22;20168;-70
2022/07/04 09:18:56;;;;;;;1999.90;999.90;;;;;;;;;;6275249;22;20169;-70
2022/07/04 09:21:47;;;;;;;1999.90;999.90;;;;;;;;;;6275248;22;20191;-71
2022/07/04 09:24:44;;;;;;;1999.90;999.90;;;;;;;;;;6275413;22;20215;-69
2022/07/04 09:27:32;;;;;;;1999.90;999.90;;;;;;;;;;6275350;22;20169;-70
2022/07/04 09:30:18;;;;;;;1999.90;999.90;;;;;;;;;;6275291;22;20204;-70
2022/07/04 09:33:05;;;;;;;1999.90;999.90;;;;;;;;;;6273660;22;20425;-70
2022/07/04 09:35:50;;;;;;;1999.90;999.90;;;;;;;;;;6275461;22;20164;-70
2022/07/04 09:38:37;;;;;;;1999.90;999.90;;;;;;;;;;6274205;22;20163;-69
2022/07/04 09:41:29;;;;;;;1999.90;999.90;;;;;;;;;;6274771;22;20289;-69
2022/07/04 09:44:14;;;;;;;1999.90;999.90;;;;;;;;;;6274981;22;20211;-68
2022/07/04 09:46:59;;;;;;;1999.90;999.90;;;;;;;;;;6274942;22;20625;-69
2022/07/04 09:49:58;;;;;;;1999.90;999.90;;;;;;;;;;6274750;22;20537;-69
2022/07/04 09:52:51;;;;;;;1999.90;999.90;;;;;;;;;;6274925;22;20163;-68
2022/07/04 09:55:38;;;;;;;1999.90;999.90;;;;;;;;;;6275063;22;20294;-69
2022/07/04 09:58:23;;;;;;;1999.90;999.90;;;;;;;;;;6274796;22;20168;-69
2022/07/04 10:01:08;;;;;;;1999.90;999.90;;;;;;;;;;6275005;22;20202;-70
2022/07/04 10:03:52;;;;;;;1999.90;999.90;;;;;;;;;;6275016;22;20172;-69
2022/07/04 10:06:39;;;;;;;1999.90;999.90;;;;;;;;;;6275546;22;20163;-69
2022/07/04 10:09:29;;;;;;;1999.90;999.90;;;;;;;;;;6274760;22;20618;-69
2022/07/04 10:12:26;;;;;;;1999.90;999.90;;;;;;;;;;6275206;22;20657;-69
2022/07/04 10:15:11;;;;;;;1999.90;999.90;;;;;;;;;;6274999;22;20223;-69
2022/07/04 10:17:56;;;;;;;1999.90;999.90;;;;;;;;;;6274523;22;20685;-68
2022/07/04 10:20:42;;;;;;;1999.90;999.90;;;;;;;;;;6274489;22;20277;-68
2022/07/04 10:23:31;;;;;;;1999.90;999.90;;;;;;;;;;6274864;22;20168;-69
2022/07/04 10:26:18;;;;;;;1999.90;999.90;;;;;;;;;;6274846;22;20214;-68
2022/07/04 10:29:05;;;;;;;1999.90;999.90;;;;;;;;;;6274018;22;20233;-68
2022/07/04 10:31:50;;;;;;;1999.90;999.90;;;;;;;;;;6274832;22;20504;-69
2022/07/04 10:34:39;;;;;;;1999.90;999.90;;;;;;;;;;6273163;22;20780;-69
2022/07/04 10:37:24;;;;;;;1999.90;999.90;;;;;;;;;;6274689;22;20215;-68
2022/07/04 10:40:10;;;;;;;1999.90;999.90;;;;;;;;;;6274543;22;20207;-70
2022/07/04 10:42:55;;;;;;;1999.90;999.90;;;;;;;;;;6274727;22;20191;-69
2022/07/04 10:45:41;;;;;;;1999.90;999.90;;;;;;;;;;6276884;22;20254;-69
2022/07/04 10:48:26;;;;;;;1999.90;999.90;;;;;;;;;;6275472;22;20164;-69
2022/07/04 10:51:15;;;;;;;1999.90;999.90;;;;;;;;;;6276714;22;20200;-69
2022/07/04 10:54:01;;;;;;;1999.90;999.90;;;;;;;;;;6276247;22;20168;-69
2022/07/04 10:56:48;;;;;;;1999.90;999.90;;;;;;;;;;6276643;22;20171;-69
2022/07/04 10:59:32;;;;;;;1999.90;999.90;;;;;;;;;;6275948;22;20206;-70
2022/07/04 11:02:26;;;;;;;1999.90;999.90;;;;;;;;;;6276363;22;20191;-70
2022/07/04 11:05:12;;;;;;;1999.90;999.90;;;;;;;;;;6276439;22;20296;-70
2022/07/04 11:07:58;;;;;;;1999.90;999.90;;;;;;;;;;6276331;22;20250;-70
2022/07/04 11:10:43;;;;;;;1999.90;999.90;;;;;;;;;;6276289;22;20203;-70
2022/07/04 11:13:28;;;;;;;1999.90;999.90;;;;;;;;;;6276126;22;20167;-70
2022/07/04 11:16:13;;;;;;;1999.90;999.90;;;;;;;;;;6275943;22;20171;-69
2022/07/04 11:19:00;;;;;;;1999.90;999.90;;;;;;;;;;6275022;22;20191;-71
2022/07/04 11:21:45;;;;;;;1999.90;999.90;;;;;;;;;;6276555;22;20191;-70
2022/07/04 11:24:30;;;;;;;1999.90;999.90;;;;;;;;;;6276416;22;20375;-69
2022/07/04 11:27:15;;;;;;;1999.90;999.90;;;;;;;;;;6276640;22;20621;-70
2022/07/04 11:30:00;;;;;;;1999.90;999.90;;;;;;;;;;6275816;22;20274;-69
2022/07/04 11:32:45;;;;;;;1999.90;999.90;;;;;;;;;;6275247;22;20614;-70
2022/07/04 11:35:31;;;;;;;1999.90;999.90;;;;;;;;;;6276383;22;20171;-70
2022/07/04 11:38:16;;;;;;;1999.90;999.90;;;;;;;;;;6275810;22;20175;-70
2022/07/04 11:47:09;;;;;;;1999.90;999.90;;;;;;;;;;6276200;22;20501;-70
2022/07/04 11:49:55;;;;;;;1999.90;999.90;;;;;;;;;;6275621;22;20222;-70
2022/07/04 11:52:42;;;;;;;1999.90;999.90;;;;;;;;;;6276104;22;20179;-69
2022/07/04 11:55:27;;;;;;;1999.90;999.90;;;;;;;;;;6276123;22;20214;-71
2022/07/04 11:58:12;;;;;;;1999.90;999.90;;;;;;;;;;6275694;22;20243;-70
2022/07/04 12:00:57;;;;;;;1999.90;999.90;;;;;;;;;;6275865;22;20279;-70
2022/07/04 12:03:42;;;;;;;1999.90;999.90;;;;;;;;;;6276052;22;20610;-70
2022/07/04 12:06:27;;;;;;;1999.90;999.90;;;;;;;;;;6276143;22;20186;-70
2022/07/04 12:09:16;;;;;;;1999.90;999.90;;;;;;;;;;6274830;22;20375;-70
2022/07/04 12:12:00;;;;;;;1999.90;999.90;;;;;;;;;;6276231;22;20180;-70
2022/07/04 12:14:59;;;;;;;1999.90;999.90;;;;;;;;;;6276051;22;20550;-69
2022/07/04 12:17:44;;;;;;;1999.90;999.90;;;;;;;;;;6275755;22;20170;-70
2022/07/04 12:20:29;;;;;;;1999.90;999.90;;;;;;;;;;6276331;22;20353;-70
2022/07/04 12:23:15;;;;;;;1999.90;999.90;;;;;;;;;;6275811;22;20250;-70
2022/07/04 12:26:03;;;;;;;1999.90;999.90;;;;;;;;;;6283241;22;20683;-71
2022/07/04 12:28:48;;;;;;;1999.90;999.90;;;;;;;;;;6284335;22;20239;-70
2022/07/04 12:31:40;;;;;;;1999.90;999.90;;;;;;;;;;6282868;22;20293;-71
2022/07/04 12:34:25;;;;;;;1999.90;999.90;;;;;;;;;;6279140;22;20167;-71
2022/07/04 12:37:10;;;;;;;1999.90;999.90;;;;;;;;;;6275892;22;20183;-71
2022/07/04 12:39:55;;;;;;;1999.90;999.90;;;;;;;;;;6274644;22;20387;-70
2022/07/04 12:42:43;;;;;;;1999.90;999.90;;;;;;;;;;6275682;22;20650;-71
2022/07/04 12:45:42;;;;;;;1999.90;999.90;;;;;;;;;;6276196;22;20275;-70
2022/07/04 12:48:28;;;;;;;1999.90;999.90;;;;;;;;;;6274849;22;20164;-69
2022/07/04 12:51:14;;;;;;;1999.90;999.90;;;;;;;;;;6275591;22;20249;-70
2022/07/04 12:54:06;;;;;;;1999.90;999.90;;;;;;;;;;6275659;22;20245;-69
2022/07/04 12:56:51;;;;;;;1999.90;999.90;;;;;;;;;;6274268;22;20700;-69
2022/07/04 12:59:38;;;;;;;1999.90;999.90;;;;;;;;;;6272745;22;20202;-68
2022/07/04 13:02:23;;;;;;;1999.90;999.90;;;;;;;;;;6275408;22;20249;-69
2022/07/04 13:05:08;;;;;;;1999.90;999.90;;;;;;;;;;6274324;22;20343;-69
2022/07/04 13:07:53;;;;;;;1999.90;999.90;;;;;;;;;;6272619;22;20238;-69
2022/07/04 13:10:38;;;;;;;1999.90;999.90;;;;;;;;;;6272158;22;20214;-69
2022/07/04 13:13:23;;;;;;;1999.90;999.90;;;;;;;;;;6273338;22;20240;-70
2022/07/04 13:16:09;;;;;;;1999.90;999.90;;;;;;;;;;6274335;22;20523;-70
2022/07/04 13:18:54;;;;;;;1999.90;999.90;;;;;;;;;;6274965;22;20169;-69
2022/07/04 13:21:39;;;;;;;1999.90;999.90;;;;;;;;;;6275054;22;20525;-70
2022/07/04 13:24:24;;;;;;;1999.90;999.90;;;;;;;;;;6275344;22;20169;-70
2022/07/04 13:27:09;;;;;;;1999.90;999.90;;;;;;;;;;6274418;22;20472;-70
2022/07/04 13:29:54;;;;;;;1999.90;999.90;;;;;;;;;;6274862;22;20205;-69
2022/07/04 13:32:40;;;;;;;1999.90;999.90;;;;;;;;;;6275139;22;20169;-70
2022/07/04 13:35:25;;;;;;;1999.90;999.90;;;;;;;;;;6275262;22;20625;-70
2022/07/04 13:38:10;;;;;;;1999.90;999.90;;;;;;;;;;6274741;22;20187;-70
2022/07/04 13:40:56;;;;;;;1999.90;999.90;;;;;;;;;;6274767;22;20210;-69
2022/07/04 13:43:41;;;;;;;1999.90;999.90;;;;;;;;;;6273903;22;20455;-70
2022/07/04 13:46:26;;;;;;;1999.90;999.90;;;;;;;;;;6274906;22;20222;-70
2022/07/04 13:49:12;;;;;;;1999.90;999.90;;;;;;;;;;6274444;22;20167;-69
2022/07/04 13:51:57;;;;;;;1999.90;999.90;;;;;;;;;;6275135;22;20215;-69
2022/07/04 13:54:42;;;;;;;1999.90;999.90;;;;;;;;;;6275189;22;20170;-69
2022/07/04 13:57:28;;;;;;;1999.90;999.90;;;;;;;;;;6275046;22;20170;-69
2022/07/04 14:00:13;;;;;;;1999.90;999.90;;;;;;;;;;6275242;22;20276;-70
2022/07/04 14:02:58;;;;;;;1999.90;999.90;;;;;;;;;;6275003;22;20191;-70
2022/07/04 14:05:45;;;;;;;1999.90;999.90;;;;;;;;;;6275077;22;20204;-70
2022/07/04 14:08:30;;;;;;;1999.90;999.90;;;;;;;;;;6274753;22;20210;-69
2022/07/04 14:11:14;;;;;;;1999.90;999.90;;;;;;;;;;6274893;22;20205;-69
2022/07/04 14:14:00;;;;;;;1999.90;999.90;;;;;;;;;;6274534;22;20372;-70
2022/07/04 14:16:44;;;;;;;1999.90;999.90;;;;;;;;;;6274475;22;20215;-70
2022/07/04 14:19:29;;;;;;;1999.90;999.90;;;;;;;;;;6274170;22;20619;-69
2022/07/04 14:22:15;;;;;;;1999.90;999.90;;;;;;;;;;6275121;22;20273;-70
2022/07/04 14:25:00;;;;;;;1999.90;999.90;;;;;;;;;;6274588;22;20165;-70
2022/07/04 14:27:45;;;;;;;1999.90;999.90;;;;;;;;;;6273957;22;20187;-71
2022/07/04 14:30:30;;;;;;;1999.90;999.90;;;;;;;;;;6273525;22;20379;-68
2022/07/04 14:33:15;;;;;;;1999.90;999.90;;;;;;;;;;6274688;22;20246;-68
2022/07/04 14:36:00;;;;;;;1999.90;999.90;;;;;;;;;;6274663;22;20202;-68
2022/07/04 14:38:47;;;;;;;1999.90;999.90;;;;;;;;;;6274216;22;20211;-68
2022/07/04 14:41:32;;;;;;;1999.90;999.90;;;;;;;;;;6274413;22;20209;-71
2022/07/04 14:44:23;;;;;;;1999.90;999.90;;;;;;;;;;6274472;22;20207;-68
2022/07/04 14:47:11;;;;;;;1999.90;999.90;;;;;;;;;;6274632;22;20234;-70
2022/07/04 14:49:56;;;;;;;1999.90;999.90;;;;;;;;;;6274278;22;20634;-69
2022/07/04 14:52:41;;;;;;;1999.90;999.90;;;;;;;;;;6274617;22;20583;-70
2022/07/04 14:55:28;;;;;;;1999.90;999.90;;;;;;;;;;6274596;22;20166;-70
2022/07/04 14:58:13;;;;;;;1999.90;999.90;;;;;;;;;;6274104;22;20167;-70
2022/07/04 15:00:58;;;;;;;1999.90;999.90;;;;;;;;;;6274354;22;20247;-70
2022/07/04 15:03:44;;;;;;;1999.90;999.90;;;;;;;;;;6274448;22;20196;-70
2022/07/04 15:06:29;;;;;;;1999.90;999.90;;;;;;;;;;6274457;22;20214;-70
2022/07/04 15:09:14;;;;;;;1999.90;999.90;;;;;;;;;;6274030;22;20253;-70
2022/07/04 15:12:00;;;;;;;1999.90;999.90;;;;;;;;;;6274925;22;20545;-70
2022/07/04 15:14:45;;;;;;;1999.90;999.90;;;;;;;;;;6274288;22;20171;-70
2022/07/04 15:17:30;;;;;;;1999.90;999.90;;;;;;;;;;6274543;22;20176;-70
2022/07/04 15:26:21;;;;;;;1999.90;999.90;;;;;;;;;;6274300;22;20485;-71
2022/07/04 15:29:07;;;;;;;1999.90;999.90;;;;;;;;;;6273726;22;20586;-70
2022/07/04 15:31:52;;;;;;;1999.90;999.90;;;;;;;;;;6275918;22;20217;-70
2022/07/04 15:34:37;;;;;;;1999.90;999.90;;;;;;;;;;6276014;22;20163;-71
2022/07/04 15:37:22;;;;;;;1999.90;999.90;;;;;;;;;;6276247;22;20219;-70
2022/07/04 15:40:08;;;;;;;1999.90;999.90;;;;;;;;;;6276119;22;20234;-71
2022/07/04 15:42:52;;;;;;;1999.90;999.90;;;;;;;;;;6276353;22;20191;-71
2022/07/04 15:45:39;;;;;;;1999.90;999.90;;;;;;;;;;6276365;22;20170;-71
2022/07/04 15:48:24;;;;;;;1999.90;999.90;;;;;;;;;;6275833;22;20376;-71
2022/07/04 15:51:09;;;;;;;1999.90;999.90;;;;;;;;;;6276106;22;20294;-71
2022/07/04 15:53:54;;;;;;;1999.90;999.90;;;;;;;;;;6275791;22;20180;-72
2022/07/04 15:56:38;;;;;;;1999.90;999.90;;;;;;;;;;6276386;22;20238;-71
2022/07/04 15:59:23;;;;;;;1999.90;999.90;;;;;;;;;;6275735;22;20246;-70
2022/07/04 16:02:10;;;;;;;1999.90;999.90;;;;;;;;;;6275644;22;20187;-70
2022/07/04 16:04:55;;;;;;;1999.90;999.90;;;;;;;;;;6275629;22;20412;-71
2022/07/04 16:07:40;;;;;;;1999.90;999.90;;;;;;;;;;6275581;22;20175;-71
2022/07/04 16:10:25;;;;;;;1999.90;999.90;;;;;;;;;;6275782;22;20676;-72
2022/07/04 16:13:10;;;;;;;1999.90;999.90;;;;;;;;;;6276127;22;20164;-71
2022/07/04 16:15:55;;;;;;;1999.90;999.90;;;;;;;;;;6275671;22;20237;-71
2022/07/04 16:18:41;;;;;;;1999.90;999.90;;;;;;;;;;6274803;22;20175;-71
2022/07/04 16:21:26;;;;;;;1999.90;999.90;;;;;;;;;;6275247;22;20324;-71
2022/07/04 16:24:10;;;;;;;1999.90;999.90;;;;;;;;;;6275784;22;20649;-71
2022/07/04 16:26:55;;;;;;;1999.90;999.90;;;;;;;;;;6275685;22;20168;-71
2022/07/04 16:29:40;;;;;;;1999.90;999.90;;;;;;;;;;6275494;22;20228;-71